sensor_id;sensor_type;location;lat;lon;timestamp;pressure;altitude;pressure_sealevel;temperature;humidity
19624;BME280;9959;49.798;9.928;2023-12-07T00:02:03;99951.31;;;2.30;100.00
19624;BME280;9959;49.798;9.928;2023-12-07T00:04:31;99955.94;;;2.28;100.00
19624;BME280;9959;49.798;9.928;2023-12-07T00:06:58;99962.69;;;2.22;100.00
19624;BME280;9959;49.798;9.928;2023-12-07T00:09:25;99960.03;;;2.22;100.00
19624;BME280;9959;49.798;9.928;2023-12-07T00:11:52;99959.88;;;2.24;100.00
19624;BME280;9959;49.798;9.928;2023-12-07T00:14:20;99956.31;;;2.15;100.00
19624;BME280;9959;49.798;9.928;2023-12-07T00:16:47;99955.34;;;2.16;100.00
19624;BME280;9959;49.798;9.928;2023-12-07T00:19:13;99962.69;;;2.22;100.00
19624;BME280;9959;49.798;9.928;2023-12-07T00:21:40;99956.53;;;2.22;100.00
19624;BME280;9959;49.798;9.928;2023-12-07T00:24:07;99956.31;;;2.15;100.00
19624;BME280;9959;49.798;9.928;2023-12-07T00:26:35;99957.69;;;2.19;100.00
19624;BME280;9959;49.798;9.928;2023-12-07T00:29:01;99959.69;;;2.17;100.00
19624;BME280;9959;49.798;9.928;2023-12-07T00:31:28;99966.28;;;2.13;100.00
19624;BME280;9959;49.798;9.928;2023-12-07T00:33:55;99963.22;;;2.08;100.00
19624;BME280;9959;49.798;9.928;2023-12-07T00:36:23;99961.66;;;2.15;100.00
19624;BME280;9959;49.798;9.928;2023-12-07T00:38:50;99965.34;;;2.04;100.00
19624;BME280;9959;49.798;9.928;2023-12-07T00:41:17;99964.50;;;2.04;100.00
19624;BME280;9959;49.798;9.928;2023-12-07T00:43:44;99974.59;;;2.00;100.00
19624;BME280;9959;49.798;9.928;2023-12-07T00:46:11;99974.53;;;2.10;100.00
19624;BME280;9959;49.798;9.928;2023-12-07T00:48:38;99971.78;;;2.02;100.00
19624;BME280;9959;49.798;9.928;2023-12-07T00:51:06;99970.94;;;2.01;100.00
19624;BME280;9959;49.798;9.928;2023-12-07T00:53:34;99973.47;;;2.03;100.00
19624;BME280;9959;49.798;9.928;2023-12-07T00:56:04;99984.09;;;2.03;100.00
19624;BME280;9959;49.798;9.928;2023-12-07T00:58:31;99987.44;;;2.05;100.00
19624;BME280;9959;49.798;9.928;2023-12-07T01:00:58;99987.44;;;2.05;100.00
19624;BME280;9959;49.798;9.928;2023-12-07T01:03:25;99987.81;;;2.10;100.00
19624;BME280;9959;49.798;9.928;2023-12-07T01:05:52;99990.47;;;2.10;100.00
19624;BME280;9959;49.798;9.928;2023-12-07T01:08:19;99997.78;;;2.08;100.00
19624;BME280;9959;49.798;9.928;2023-12-07T01:10:46;100006.13;;;2.13;100.00
19624;BME280;9959;49.798;9.928;2023-12-07T01:13:13;100001.81;;;2.12;100.00
19624;BME280;9959;49.798;9.928;2023-12-07T01:15:40;100000.13;;;2.11;100.00
19624;BME280;9959;49.798;9.928;2023-12-07T01:18:07;100021.63;;;2.18;100.00
19624;BME280;9959;49.798;9.928;2023-12-07T01:20:34;100018.72;;;2.11;100.00
19624;BME280;9959;49.798;9.928;2023-12-07T01:23:01;100022.78;;;2.15;100.00
19624;BME280;9959;49.798;9.928;2023-12-07T01:25:28;100032.09;;;2.19;100.00
19624;BME280;9959;49.798;9.928;2023-12-07T01:27:55;100034.94;;;2.18;100.00
19624;BME280;9959;49.798;9.928;2023-12-07T01:30:22;100030.13;;;2.21;100.00
19624;BME280;9959;49.798;9.928;2023-12-07T01:32:49;100031.28;;;2.19;100.00
19624;BME280;9959;49.798;9.928;2023-12-07T01:35:17;100035.22;;;2.15;100.00
19624;BME280;9959;49.798;9.928;2023-12-07T01:37:43;100038.03;;;2.13;100.00
19624;BME280;9959;49.798;9.928;2023-12-07T01:40:11;100039.00;;;2.12;100.00
19624;BME280;9959;49.798;9.928;2023-12-07T01:42:38;100043.09;;;2.07;100.00
19624;BME280;9959;49.798;9.928;2023-12-07T01:45:06;100047.03;;;2.02;100.00
19624;BME280;9959;49.798;9.928;2023-12-07T01:47:35;100041.72;;;2.02;100.00
19624;BME280;9959;49.798;9.928;2023-12-07T01:50:04;100045.91;;;2.05;100.00
19624;BME280;9959;49.798;9.928;2023-12-07T01:52:32;100050.91;;;2.08;100.00
19624;BME280;9959;49.798;9.928;2023-12-07T01:54:59;100046.63;;;1.97;100.00
19624;BME280;9959;49.798;9.928;2023-12-07T01:57:26;100048.44;;;1.97;100.00
19624;BME280;9959;49.798;9.928;2023-12-07T01:59:54;100043.97;;;1.97;100.00
19624;BME280;9959;49.798;9.928;2023-12-07T02:02:21;100046.47;;;1.99;100.00
19624;BME280;9959;49.798;9.928;2023-12-07T02:04:49;100045.38;;;1.92;100.00
19624;BME280;9959;49.798;9.928;2023-12-07T02:07:17;100041.09;;;1.91;100.00
19624;BME280;9959;49.798;9.928;2023-12-07T02:09:44;100043.75;;;1.91;100.00
19624;BME280;9959;49.798;9.928;2023-12-07T02:12:11;100050.63;;;1.84;100.00
19624;BME280;9959;49.798;9.928;2023-12-07T02:14:39;100050.91;;;1.81;100.00
19624;BME280;9959;49.798;9.928;2023-12-07T02:20:01;100048.53;;;1.78;100.00
19624;BME280;9959;49.798;9.928;2023-12-07T02:22:38;100050.22;;;1.79;100.00
19624;BME280;9959;49.798;9.928;2023-12-07T02:25:10;100050.22;;;1.79;100.00
19624;BME280;9959;49.798;9.928;2023-12-07T02:30:06;100053.56;;;1.81;100.00
19624;BME280;9959;49.798;9.928;2023-12-07T02:32:43;100048.81;;;1.75;100.00
19624;BME280;9959;49.798;9.928;2023-12-07T02:35:20;100054.69;;;1.68;100.00
19624;BME280;9959;49.798;9.928;2023-12-07T02:37:50;100051.34;;;1.66;100.00
19624;BME280;9959;49.798;9.928;2023-12-07T02:40:24;100046.66;;;1.60;100.00
19624;BME280;9959;49.798;9.928;2023-12-07T02:42:59;100049.69;;;1.65;100.00
19624;BME280;9959;49.798;9.928;2023-12-07T02:45:26;100055.59;;;1.59;100.00
19624;BME280;9959;49.798;9.928;2023-12-07T02:47:57;100057.00;;;1.54;100.00
19624;BME280;9959;49.798;9.928;2023-12-07T02:50:24;100045.56;;;1.44;100.00
19624;BME280;9959;49.798;9.928;2023-12-07T02:52:51;100050.59;;;1.37;100.00
19624;BME280;9959;49.798;9.928;2023-12-07T02:55:18;100046.31;;;1.26;100.00
19624;BME280;9959;49.798;9.928;2023-12-07T02:57:46;100048.97;;;1.17;100.00
19624;BME280;9959;49.798;9.928;2023-12-07T03:00:14;100056.22;;;1.15;100.00
19624;BME280;9959;49.798;9.928;2023-12-07T03:02:41;100047.31;;;1.06;100.00
19624;BME280;9959;49.798;9.928;2023-12-07T03:05:08;100043.97;;;0.94;100.00
19624;BME280;9959;49.798;9.928;2023-12-07T03:07:35;100053.19;;;1.00;100.00
19624;BME280;9959;49.798;9.928;2023-12-07T03:10:03;100053.19;;;0.90;100.00
19624;BME280;9959;49.798;9.928;2023-12-07T03:12:30;100051.22;;;0.73;100.00
19624;BME280;9959;49.798;9.928;2023-12-07T03:14:57;100050.38;;;0.82;100.00
19624;BME280;9959;49.798;9.928;2023-12-07T03:17:24;100053.88;;;0.63;100.00
19624;BME280;9959;49.798;9.928;2023-12-07T03:19:51;100063.78;;;0.61;100.00
19624;BME280;9959;49.798;9.928;2023-12-07T03:22:18;100067.38;;;0.41;100.00
19624;BME280;9959;49.798;9.928;2023-12-07T03:24:48;100068.09;;;0.43;100.00
19624;BME280;9959;49.798;9.928;2023-12-07T03:27:15;100065.41;;;0.33;100.00
19624;BME280;9959;49.798;9.928;2023-12-07T03:29:42;100070.44;;;0.37;100.00
19624;BME280;9959;49.798;9.928;2023-12-07T03:32:09;100069.72;;;0.34;100.00
19624;BME280;9959;49.798;9.928;2023-12-07T03:34:36;100070.78;;;0.13;100.00
19624;BME280;9959;49.798;9.928;2023-12-07T03:37:03;100075.91;;;0.05;100.00
19624;BME280;9959;49.798;9.928;2023-12-07T03:39:30;100080.47;;;0.23;100.00
19624;BME280;9959;49.798;9.928;2023-12-07T03:42:00;100079.19;;;0.27;100.00
19624;BME280;9959;49.798;9.928;2023-12-07T03:44:26;100079.19;;;0.27;100.00
19624;BME280;9959;49.798;9.928;2023-12-07T03:46:54;100082.53;;;0.29;100.00
19624;BME280;9959;49.798;9.928;2023-12-07T03:49:22;100090.94;;;0.34;100.00
19624;BME280;9959;49.798;9.928;2023-12-07T03:51:48;100086.75;;;0.42;100.00
19624;BME280;9959;49.798;9.928;2023-12-07T03:54:16;100087.44;;;0.34;100.00
19624;BME280;9959;49.798;9.928;2023-12-07T03:56:42;100084.88;;;0.13;100.00
19624;BME280;9959;49.798;9.928;2023-12-07T03:59:10;100091.16;;;0.12;100.00
19624;BME280;9959;49.798;9.928;2023-12-07T04:01:37;100084.63;;;-0.14;100.00
19624;BME280;9959;49.798;9.928;2023-12-07T04:04:04;100088.44;;;-0.07;100.00
19624;BME280;9959;49.798;9.928;2023-12-07T04:06:32;100093.63;;;-0.26;100.00
19624;BME280;9959;49.798;9.928;2023-12-07T04:08:58;100094.31;;;-0.24;100.00
19624;BME280;9959;49.798;9.928;2023-12-07T04:11:26;100094.44;;;-0.36;100.00
19624;BME280;9959;49.798;9.928;2023-12-07T04:13:53;100092.38;;;-0.22;100.00
19624;BME280;9959;49.798;9.928;2023-12-07T04:16:19;100101.13;;;-0.31;100.00
19624;BME280;9959;49.798;9.928;2023-12-07T04:18:46;100100.53;;;-0.14;100.00
19624;BME280;9959;49.798;9.928;2023-12-07T04:21:13;100104.06;;;-0.04;100.00
19624;BME280;9959;49.798;9.928;2023-12-07T04:23:40;100101.41;;;-0.35;100.00
19624;BME280;9959;49.798;9.928;2023-12-07T04:26:07;100106.94;;;-0.38;100.00
19624;BME280;9959;49.798;9.928;2023-12-07T04:28:34;100102.56;;;-0.27;100.00
19624;BME280;9959;49.798;9.928;2023-12-07T04:31:01;100104.09;;;-0.46;100.00
19624;BME280;9959;49.798;9.928;2023-12-07T04:33:28;100108.38;;;-0.54;100.00
19624;BME280;9959;49.798;9.928;2023-12-07T04:35:56;100107.88;;;-0.69;100.00
19624;BME280;9959;49.798;9.928;2023-12-07T04:38:23;100107.91;;;-0.39;100.00
19624;BME280;9959;49.798;9.928;2023-12-07T04:40:50;100111.44;;;-0.59;100.00
19624;BME280;9959;49.798;9.928;2023-12-07T04:43:17;100103.22;;;-0.56;100.00
19624;BME280;9959;49.798;9.928;2023-12-07T04:45:44;100111.00;;;-0.54;100.00
19624;BME280;9959;49.798;9.928;2023-12-07T04:48:11;100109.78;;;-0.71;100.00
19624;BME280;9959;49.798;9.928;2023-12-07T04:50:38;100114.03;;;-0.80;100.00
19624;BME280;9959;49.798;9.928;2023-12-07T04:53:05;100109.28;;;-0.86;100.00
19624;BME280;9959;49.798;9.928;2023-12-07T04:55:32;100112.94;;;-0.77;100.00
19624;BME280;9959;49.798;9.928;2023-12-07T04:57:59;100122.94;;;-0.81;100.00
19624;BME280;9959;49.798;9.928;2023-12-07T05:00:26;100115.59;;;-0.77;100.00
19624;BME280;9959;49.798;9.928;2023-12-07T05:02:54;100120.03;;;-0.78;100.00
19624;BME280;9959;49.798;9.928;2023-12-07T05:05:21;100119.53;;;-0.72;100.00
19624;BME280;9959;49.798;9.928;2023-12-07T05:07:48;100117.94;;;-0.63;100.00
19624;BME280;9959;49.798;9.928;2023-12-07T05:10:15;100118.91;;;-0.64;100.00
19624;BME280;9959;49.798;9.928;2023-12-07T05:12:42;100117.47;;;-0.68;100.00
19624;BME280;9959;49.798;9.928;2023-12-07T05:15:09;100108.97;;;-0.72;100.00
19624;BME280;9959;49.798;9.928;2023-12-07T05:17:36;100105.94;;;-0.67;100.00
19624;BME280;9959;49.798;9.928;2023-12-07T05:20:04;100109.47;;;-0.78;100.00
19624;BME280;9959;49.798;9.928;2023-12-07T05:22:31;100113.41;;;-0.72;100.00
19624;BME280;9959;49.798;9.928;2023-12-07T05:24:58;100115.34;;;-0.74;100.00
19624;BME280;9959;49.798;9.928;2023-12-07T05:27:25;100117.53;;;-0.79;100.00
19624;BME280;9959;49.798;9.928;2023-12-07T05:29:53;100118.31;;;-0.88;100.00
19624;BME280;9959;49.798;9.928;2023-12-07T05:32:19;100115.41;;;-0.85;100.00
19624;BME280;9959;49.798;9.928;2023-12-07T05:34:47;100115.31;;;-0.95;100.00
19624;BME280;9959;49.798;9.928;2023-12-07T05:37:14;100124.56;;;-0.89;100.00
19624;BME280;9959;49.798;9.928;2023-12-07T05:39:41;100126.19;;;-0.77;100.00
19624;BME280;9959;49.798;9.928;2023-12-07T05:42:08;100118.22;;;-0.98;100.00
19624;BME280;9959;49.798;9.928;2023-12-07T05:44:35;100121.50;;;-1.06;100.00
19624;BME280;9959;49.798;9.928;2023-12-07T05:47:02;100122.25;;;-1.15;100.00
19624;BME280;9959;49.798;9.928;2023-12-07T05:49:29;100117.44;;;-1.10;100.00
19624;BME280;9959;49.798;9.928;2023-12-07T05:51:56;100118.09;;;-0.96;100.00
19624;BME280;9959;49.798;9.928;2023-12-07T05:54:23;100116.72;;;-1.12;100.00
19624;BME280;9959;49.798;9.928;2023-12-07T05:56:50;100120.34;;;-1.13;100.00
19624;BME280;9959;49.798;9.928;2023-12-07T05:59:17;100118.41;;;-1.11;100.00
19624;BME280;9959;49.798;9.928;2023-12-07T06:01:44;100125.19;;;-1.29;100.00
19624;BME280;9959;49.798;9.928;2023-12-07T06:04:11;100120.28;;;-1.02;100.00
19624;BME280;9959;49.798;9.928;2023-12-07T06:06:39;100123.84;;;-0.91;100.00
19624;BME280;9959;49.798;9.928;2023-12-07T06:09:06;100124.59;;;-1.00;100.00
19624;BME280;9959;49.798;9.928;2023-12-07T06:11:35;100126.78;;;-1.06;100.00
19624;BME280;9959;49.798;9.928;2023-12-07T06:14:02;100129.84;;;-1.21;100.00
19624;BME280;9959;49.798;9.928;2023-12-07T06:16:29;100131.91;;;-1.25;100.00
19624;BME280;9959;49.798;9.928;2023-12-07T06:18:56;100128.03;;;-1.21;100.00
19624;BME280;9959;49.798;9.928;2023-12-07T06:21:24;100138.63;;;-1.21;100.00
19624;BME280;9959;49.798;9.928;2023-12-07T06:23:52;100140.06;;;-1.17;100.00
19624;BME280;9959;49.798;9.928;2023-12-07T06:26:19;100142.22;;;-1.22;100.00
19624;BME280;9959;49.798;9.928;2023-12-07T06:28:46;100144.09;;;-1.45;100.00
19624;BME280;9959;49.798;9.928;2023-12-07T06:31:13;100154.31;;;-1.51;100.00
19624;BME280;9959;49.798;9.928;2023-12-07T06:33:42;100153.34;;;-1.39;100.00
19624;BME280;9959;49.798;9.928;2023-12-07T06:36:10;100159.59;;;-1.40;100.00
19624;BME280;9959;49.798;9.928;2023-12-07T06:38:37;100165.13;;;-1.65;100.00
19624;BME280;9959;49.798;9.928;2023-12-07T06:41:05;100174.72;;;-1.53;100.00
19624;BME280;9959;49.798;9.928;2023-12-07T06:43:32;100162.81;;;-1.48;100.00
19624;BME280;9959;49.798;9.928;2023-12-07T06:45:59;100161.69;;;-1.34;100.00
19624;BME280;9959;49.798;9.928;2023-12-07T06:48:26;100163.63;;;-1.36;100.00
19624;BME280;9959;49.798;9.928;2023-12-07T06:50:53;100166.06;;;-1.44;100.00
19624;BME280;9959;49.798;9.928;2023-12-07T06:53:20;100167.03;;;-1.45;100.00
19624;BME280;9959;49.798;9.928;2023-12-07T06:55:47;100158.97;;;-1.44;100.00
19624;BME280;9959;49.798;9.928;2023-12-07T06:58:14;100161.88;;;-1.47;100.00
19624;BME280;9959;49.798;9.928;2023-12-07T07:00:41;100170.34;;;-1.21;100.00
19624;BME280;9959;49.798;9.928;2023-12-07T07:03:08;100170.59;;;-1.24;100.00
19624;BME280;9959;49.798;9.928;2023-12-07T07:05:34;100184.03;;;-1.27;100.00
19624;BME280;9959;49.798;9.928;2023-12-07T07:08:04;100181.50;;;-1.17;100.00
19624;BME280;9959;49.798;9.928;2023-12-07T07:10:33;100192.09;;;-1.17;100.00
19624;BME280;9959;49.798;9.928;2023-12-07T07:13:01;100197.97;;;-1.14;100.00
19624;BME280;9959;49.798;9.928;2023-12-07T07:15:34;100206.34;;;-1.09;100.00
19624;BME280;9959;49.798;9.928;2023-12-07T07:18:02;100204.47;;;-1.18;100.00
19624;BME280;9959;49.798;9.928;2023-12-07T07:20:29;100207.56;;;-1.13;100.00
19624;BME280;9959;49.798;9.928;2023-12-07T07:22:56;100208.53;;;-1.14;100.00
19624;BME280;9959;49.798;9.928;2023-12-07T07:25:23;100204.94;;;-1.13;100.00
19624;BME280;9959;49.798;9.928;2023-12-07T07:27:50;100206.34;;;-1.09;100.00
19624;BME280;9959;49.798;9.928;2023-12-07T07:30:17;100208.97;;;-0.97;100.00
19624;BME280;9959;49.798;9.928;2023-12-07T07:32:45;100215.19;;;-0.87;100.00
19624;BME280;9959;49.798;9.928;2023-12-07T07:35:12;100206.06;;;-0.83;100.00
19624;BME280;9959;49.798;9.928;2023-12-07T07:37:39;100215.38;;;-0.68;100.00
19624;BME280;9959;49.798;9.928;2023-12-07T07:40:07;100216.47;;;-0.71;100.00
19624;BME280;9959;49.798;9.928;2023-12-07T07:42:34;100207.91;;;-0.63;100.00
19624;BME280;9959;49.798;9.928;2023-12-07T07:45:01;100207.56;;;-0.49;100.00
19624;BME280;9959;49.798;9.928;2023-12-07T07:47:29;100209.56;;;-0.62;100.00
19624;BME280;9959;49.798;9.928;2023-12-07T07:49:56;100205.72;;;-0.58;100.00
19624;BME280;9959;49.798;9.928;2023-12-07T07:52:22;100212.16;;;-0.51;100.00
19624;BME280;9959;49.798;9.928;2023-12-07T07:54:50;100214.56;;;-0.48;100.00
19624;BME280;9959;49.798;9.928;2023-12-07T07:57:16;100218.03;;;-0.47;100.00
19624;BME280;9959;49.798;9.928;2023-12-07T07:59:44;100224.53;;;-0.51;100.00
19624;BME280;9959;49.798;9.928;2023-12-07T08:02:11;100228.72;;;-0.38;100.00
19624;BME280;9959;49.798;9.928;2023-12-07T08:04:38;100228.72;;;-0.38;100.00
19624;BME280;9959;49.798;9.928;2023-12-07T08:07:05;100226.56;;;-0.44;100.00
19624;BME280;9959;49.798;9.928;2023-12-07T08:09:34;100229.81;;;-0.19;100.00
19624;BME280;9959;49.798;9.928;2023-12-07T08:12:01;100233.94;;;-0.26;100.00
19624;BME280;9959;49.798;9.928;2023-12-07T08:14:28;100234.84;;;-0.16;100.00
19624;BME280;9959;49.798;9.928;2023-12-07T08:16:55;100235.19;;;-0.30;100.00
19624;BME280;9959;49.798;9.928;2023-12-07T08:19:22;100230.72;;;-0.30;100.00
19624;BME280;9959;49.798;9.928;2023-12-07T08:21:50;100221.94;;;-0.10;100.00
19624;BME280;9959;49.798;9.928;2023-12-07T08:24:17;100230.59;;;-0.08;100.00
19624;BME280;9959;49.798;9.928;2023-12-07T08:26:44;100230.78;;;-0.20;100.00
19624;BME280;9959;49.798;9.928;2023-12-07T08:29:11;100230.72;;;-0.30;100.00
19624;BME280;9959;49.798;9.928;2023-12-07T08:31:40;100229.94;;;-0.21;100.00
19624;BME280;9959;49.798;9.928;2023-12-07T08:34:07;100232.31;;;-0.39;100.00
19624;BME280;9959;49.798;9.928;2023-12-07T08:36:34;100232.97;;;-0.25;100.00
19624;BME280;9959;49.798;9.928;2023-12-07T08:39:01;100230.53;;;-0.17;100.00
19624;BME280;9959;49.798;9.928;2023-12-07T08:41:27;100229.03;;;-0.10;100.00
19624;BME280;9959;49.798;9.928;2023-12-07T08:43:54;100242.19;;;0.01;100.00
19624;BME280;9959;49.798;9.928;2023-12-07T08:46:22;100234.72;;;0.06;100.00
19624;BME280;9959;49.798;9.928;2023-12-07T08:48:49;100236.91;;;0.22;100.00
19624;BME280;9959;49.798;9.928;2023-12-07T08:51:16;100244.00;;;-0.20;100.00
19624;BME280;9959;49.798;9.928;2023-12-07T08:53:42;100241.38;;;-0.20;100.00
19624;BME280;9959;49.798;9.928;2023-12-07T08:56:09;100235.81;;;-0.17;100.00
19624;BME280;9959;49.798;9.928;2023-12-07T08:58:37;100234.19;;;0.12;100.00
19624;BME280;9959;49.798;9.928;2023-12-07T09:01:04;100231.47;;;0.23;100.00
19624;BME280;9959;49.798;9.928;2023-12-07T09:03:35;100231.91;;;0.28;100.00
19624;BME280;9959;49.798;9.928;2023-12-07T09:06:04;100234.97;;;0.24;100.00
19624;BME280;9959;49.798;9.928;2023-12-07T09:08:32;100222.81;;;0.21;100.00
19624;BME280;9959;49.798;9.928;2023-12-07T09:10:59;100219.34;;;0.30;100.00
19624;BME280;9959;49.798;9.928;2023-12-07T09:13:26;100225.75;;;0.49;100.00
19624;BME280;9959;49.798;9.928;2023-12-07T09:15:54;100224.28;;;0.75;100.00
19624;BME280;9959;49.798;9.928;2023-12-07T09:18:21;100221.47;;;0.67;100.00
19624;BME280;9959;49.798;9.928;2023-12-07T09:20:48;100224.13;;;0.67;100.00
19624;BME280;9959;49.798;9.928;2023-12-07T09:23:16;100233.06;;;0.66;100.00
19624;BME280;9959;49.798;9.928;2023-12-07T09:25:43;100233.47;;;1.21;100.00
19624;BME280;9959;49.798;9.928;2023-12-07T09:28:10;100221.88;;;1.22;100.00
19624;BME280;9959;49.798;9.928;2023-12-07T09:30:38;100219.31;;;0.91;100.00
19624;BME280;9959;49.798;9.928;2023-12-07T09:33:05;100223.00;;;1.29;100.00
19624;BME280;9959;49.798;9.928;2023-12-07T09:35:32;100221.31;;;1.09;100.00
19624;BME280;9959;49.798;9.928;2023-12-07T09:38:01;100218.50;;;1.00;100.00
19624;BME280;9959;49.798;9.928;2023-12-07T09:40:29;100221.53;;;0.86;100.00
19624;BME280;9959;49.798;9.928;2023-12-07T09:42:57;100213.91;;;0.62;100.00
19624;BME280;9959;49.798;9.928;2023-12-07T09:45:24;100209.56;;;1.01;100.00
19624;BME280;9959;49.798;9.928;2023-12-07T09:47:54;100208.06;;;1.28;100.00
19624;BME280;9959;49.798;9.928;2023-12-07T09:50:26;100199.25;;;1.27;100.00
19624;BME280;9959;49.798;9.928;2023-12-07T09:52:55;100194.06;;;1.07;100.00
19624;BME280;9959;49.798;9.928;2023-12-07T09:55:34;100199.22;;;0.98;100.00
19624;BME280;9959;49.798;9.928;2023-12-07T09:58:03;100203.53;;;0.80;100.00
19624;BME280;9959;49.798;9.928;2023-12-07T10:00:33;100189.41;;;0.89;100.00
19624;BME280;9959;49.798;9.928;2023-12-07T10:03:00;100192.22;;;0.78;100.00
19624;BME280;9959;49.798;9.928;2023-12-07T10:05:28;100193.44;;;0.74;100.00
19624;BME280;9959;49.798;9.928;2023-12-07T10:07:55;100188.59;;;0.79;100.00
19624;BME280;9959;49.798;9.928;2023-12-07T10:10:22;100188.88;;;0.95;100.00
19624;BME280;9959;49.798;9.928;2023-12-07T10:12:54;100185.50;;;0.74;100.00
19624;BME280;9959;49.798;9.928;2023-12-07T10:15:22;100182.72;;;0.85;100.00
19624;BME280;9959;49.798;9.928;2023-12-07T10:17:57;100190.19;;;0.61;100.00
19624;BME280;9959;49.798;9.928;2023-12-07T10:20:27;100190.25;;;0.80;100.00
19624;BME280;9959;49.798;9.928;2023-12-07T10:23:05;100198.22;;;0.90;100.00
19624;BME280;9959;49.798;9.928;2023-12-07T10:25:33;100206.16;;;0.40;100.00
19624;BME280;9959;49.798;9.928;2023-12-07T10:28:01;100192.03;;;0.70;100.00
19624;BME280;9959;49.798;9.928;2023-12-07T10:30:34;100200.03;;;0.80;100.00
19624;BME280;9959;49.798;9.928;2023-12-07T10:33:04;100202.66;;;0.70;100.00
19624;BME280;9959;49.798;9.928;2023-12-07T10:35:42;100194.44;;;0.83;100.00
19624;BME280;9959;49.798;9.928;2023-12-07T10:38:10;100201.16;;;0.96;100.00
19624;BME280;9959;49.798;9.928;2023-12-07T10:40:38;100191.06;;;0.71;100.00
19624;BME280;9959;49.798;9.928;2023-12-07T10:43:06;100190.34;;;0.69;100.00
19624;BME280;9959;49.798;9.928;2023-12-07T10:45:34;100193.06;;;0.79;100.00
19624;BME280;9959;49.798;9.928;2023-12-07T10:48:06;100184.66;;;0.74;100.00
19624;BME280;9959;49.798;9.928;2023-12-07T10:50:36;100179.25;;;0.94;100.00
19624;BME280;9959;49.798;9.928;2023-12-07T10:53:11;100168.38;;;0.97;100.00
19624;BME280;9959;49.798;9.928;2023-12-07T10:55:46;100169.94;;;0.60;100.00
19624;BME280;9959;49.798;9.928;2023-12-07T10:58:16;100162.91;;;0.89;100.00
19624;BME280;9959;49.798;9.928;2023-12-07T11:00:44;100164.59;;;1.10;100.00
19624;BME280;9959;49.798;9.928;2023-12-07T11:03:17;100158.72;;;1.16;100.00
19624;BME280;9959;49.798;9.928;2023-12-07T11:05:46;100146.44;;;1.44;100.00
19624;BME280;9959;49.798;9.928;2023-12-07T11:08:29;100145.63;;;1.05;100.00
19624;BME280;9959;49.798;9.928;2023-12-07T11:11:29;100146.44;;;1.15;100.00
19624;BME280;9959;49.798;9.928;2023-12-07T11:14:03;100146.16;;;1.18;100.00
19624;BME280;9959;49.798;9.928;2023-12-07T11:16:32;100135.56;;;0.98;100.00
19624;BME280;9959;49.798;9.928;2023-12-07T11:19:01;100137.22;;;1.19;100.00
19624;BME280;9959;49.798;9.928;2023-12-07T11:21:28;100139.47;;;1.14;100.00
19624;BME280;9959;49.798;9.928;2023-12-07T11:23:56;100135.13;;;1.13;100.00
19624;BME280;9959;49.798;9.928;2023-12-07T11:26:26;100124.38;;;1.24;100.00
19624;BME280;9959;49.798;9.928;2023-12-07T11:28:55;100129.00;;;1.22;100.00
19624;BME280;9959;49.798;9.928;2023-12-07T11:31:22;100125.22;;;1.24;100.00
19624;BME280;9959;49.798;9.928;2023-12-07T11:33:49;100121.44;;;1.17;100.00
19624;BME280;9959;49.798;9.928;2023-12-07T11:36:16;100123.25;;;1.46;100.00
19624;BME280;9959;49.798;9.928;2023-12-07T11:41:43;100109.16;;;1.35;100.00
19624;BME280;9959;49.798;9.928;2023-12-07T11:44:10;100115.16;;;1.28;100.00
19624;BME280;9959;49.798;9.928;2023-12-07T11:46:38;100118.22;;;1.43;100.00
19624;BME280;9959;49.798;9.928;2023-12-07T11:49:05;100113.34;;;1.19;100.00
19624;BME280;9959;49.798;9.928;2023-12-07T11:51:53;100110.41;;;1.22;100.00
19624;BME280;9959;49.798;9.928;2023-12-07T11:54:22;100101.75;;;1.20;100.00
19624;BME280;9959;49.798;9.928;2023-12-07T11:56:56;100108.47;;;1.24;100.00
19624;BME280;9959;49.798;9.928;2023-12-07T11:59:23;100099.25;;;1.28;100.00
19624;BME280;9959;49.798;9.928;2023-12-07T12:02:00;100089.84;;;1.43;100.00
19624;BME280;9959;49.798;9.928;2023-12-07T12:04:29;100083.13;;;1.49;100.00
19624;BME280;9959;49.798;9.928;2023-12-07T12:06:57;100077.84;;;1.39;100.00
19624;BME280;9959;49.798;9.928;2023-12-07T12:09:24;100081.59;;;1.56;100.00
19624;BME280;9959;49.798;9.928;2023-12-07T12:11:58;100080.22;;;1.42;100.00
19624;BME280;9959;49.798;9.928;2023-12-07T12:14:28;100078.16;;;1.36;100.00
19624;BME280;9959;49.798;9.928;2023-12-07T12:16:56;100075.72;;;1.52;100.00
19624;BME280;9959;49.798;9.928;2023-12-07T12:19:24;100068.78;;;1.32;100.00
19624;BME280;9959;49.798;9.928;2023-12-07T12:22:03;100072.00;;;1.26;100.00
19624;BME280;9959;49.798;9.928;2023-12-07T12:24:35;100068.78;;;1.32;100.00
19624;BME280;9959;49.798;9.928;2023-12-07T12:27:03;100065.66;;;1.46;100.00
19624;BME280;9959;49.798;9.928;2023-12-07T12:29:32;100064.81;;;1.55;100.00
19624;BME280;9959;49.798;9.928;2023-12-07T12:32:02;100054.91;;;1.48;100.00
19624;BME280;9959;49.798;9.928;2023-12-07T12:34:32;100053.72;;;1.23;100.00
19624;BME280;9959;49.798;9.928;2023-12-07T12:37:01;100040.84;;;1.28;100.00
19624;BME280;9959;49.798;9.928;2023-12-07T12:39:29;100041.28;;;1.23;100.00
19624;BME280;9959;49.798;9.928;2023-12-07T12:42:00;100032.72;;;1.39;100.00
19624;BME280;9959;49.798;9.928;2023-12-07T12:44:28;100031.50;;;1.24;100.00
19624;BME280;9959;49.798;9.928;2023-12-07T12:47:05;100032.44;;;1.42;100.00
19624;BME280;9959;49.798;9.928;2023-12-07T12:49:36;100031.84;;;1.48;100.00
19624;BME280;9959;49.798;9.928;2023-12-07T12:52:03;100026.75;;;1.64;100.00
19624;BME280;9959;49.798;9.928;2023-12-07T12:54:31;100025.13;;;1.54;100.00
19624;BME280;9959;49.798;9.928;2023-12-07T12:56:59;100023.44;;;1.62;100.00
19624;BME280;9959;49.798;9.928;2023-12-07T12:59:26;100016.91;;;1.47;100.00
19624;BME280;9959;49.798;9.928;2023-12-07T13:01:53;100015.94;;;1.48;100.00
19624;BME280;9959;49.798;9.928;2023-12-07T13:04:21;100016.16;;;1.18;100.00
19624;BME280;9959;49.798;9.928;2023-12-07T13:06:48;100015.09;;;1.38;100.00
19624;BME280;9959;49.798;9.928;2023-12-07T13:09:15;100017.66;;;1.30;100.00
19624;BME280;9959;49.798;9.928;2023-12-07T13:11:43;100012.81;;;1.62;100.00